Archival Weather

Norman Y Mineta San Jose Intl

San Jose, California (KSJC)

Report from: Wednesday, April 3, 2024 1:40 AM PDT
Current time: Tuesday, May 21, 2024 9:45 AM PDT

Current weather – Weather history – Daily summaries
Weather forecast

Temperature12.2°C (54.0°F)
Dew point9.4°C (48.9°F)
Winds Calm
Visibility10 mi. (16.1 km)
Clouds Ceiling: Broken clouds 1,600 ft. (488 m)
Altimeter30.28 in.Hg (1025 mB)
Relative humidity83 %
Density altitude-576 ft. (-175 m)
Remarks Fully automated report
Automated weather observing station with precipitation discriminator
Flight conditions Marginal Visual Meteorological Conditions
Raw dataKSJC 030840Z AUTO 00000KT 10SM BKN016 12/09 A3028 RMK AO2 T01220094
An error has occurred. This application may no longer respond until reloaded. Reload 🗙